sensor_id;sensor_type;location;lat;lon;timestamp;temperature;humidity
53294;DHT22;39181;53.440;5.644;2023-11-25T00:00:59;7.50;99.90
53294;DHT22;39181;53.440;5.644;2023-11-25T00:03:26;7.50;99.90
53294;DHT22;39181;53.440;5.644;2023-11-25T00:05:51;7.50;99.90
53294;DHT22;39181;53.440;5.644;2023-11-25T00:08:17;7.40;99.90
53294;DHT22;39181;53.440;5.644;2023-11-25T00:10:43;7.30;99.90
53294;DHT22;39181;53.440;5.644;2023-11-25T00:13:08;7.20;99.90
53294;DHT22;39181;53.440;5.644;2023-11-25T00:15:34;7.10;99.90
53294;DHT22;39181;53.440;5.644;2023-11-25T00:18:00;7.00;99.90
53294;DHT22;39181;53.440;5.644;2023-11-25T00:20:25;7.10;99.90
53294;DHT22;39181;53.440;5.644;2023-11-25T00:22:51;7.10;99.90
53294;DHT22;39181;53.440;5.644;2023-11-25T00:25:20;7.10;99.90
53294;DHT22;39181;53.440;5.644;2023-11-25T00:27:49;7.00;99.90
53294;DHT22;39181;53.440;5.644;2023-11-25T00:30:15;7.00;99.90
53294;DHT22;39181;53.440;5.644;2023-11-25T00:32:41;6.90;99.90
53294;DHT22;39181;53.440;5.644;2023-11-25T00:35:07;6.80;99.90
53294;DHT22;39181;53.440;5.644;2023-11-25T00:37:37;6.80;99.90
53294;DHT22;39181;53.440;5.644;2023-11-25T00:40:05;6.80;99.90
53294;DHT22;39181;53.440;5.644;2023-11-25T00:42:34;6.80;99.90
53294;DHT22;39181;53.440;5.644;2023-11-25T00:45:00;6.70;99.90
53294;DHT22;39181;53.440;5.644;2023-11-25T00:47:26;6.80;99.90
53294;DHT22;39181;53.440;5.644;2023-11-25T00:49:53;6.90;99.90
53294;DHT22;39181;53.440;5.644;2023-11-25T00:52:19;6.90;99.90
53294;DHT22;39181;53.440;5.644;2023-11-25T00:54:44;6.90;99.90
53294;DHT22;39181;53.440;5.644;2023-11-25T00:57:10;6.90;99.90
53294;DHT22;39181;53.440;5.644;2023-11-25T00:59:36;6.80;99.90
53294;DHT22;39181;53.440;5.644;2023-11-25T01:02:02;6.80;99.90
53294;DHT22;39181;53.440;5.644;2023-11-25T01:04:27;6.90;99.90
53294;DHT22;39181;53.440;5.644;2023-11-25T01:06:53;7.20;99.90
53294;DHT22;39181;53.440;5.644;2023-11-25T01:09:19;7.00;99.90
53294;DHT22;39181;53.440;5.644;2023-11-25T01:11:48;7.00;99.90
53294;DHT22;39181;53.440;5.644;2023-11-25T01:14:14;7.10;99.90
53294;DHT22;39181;53.440;5.644;2023-11-25T01:16:39;7.20;99.90
53294;DHT22;39181;53.440;5.644;2023-11-25T01:19:06;7.20;99.90
53294;DHT22;39181;53.440;5.644;2023-11-25T01:21:32;7.30;99.90
53294;DHT22;39181;53.440;5.644;2023-11-25T01:23:57;7.30;99.90
53294;DHT22;39181;53.440;5.644;2023-11-25T01:26:23;7.30;99.90
53294;DHT22;39181;53.440;5.644;2023-11-25T01:28:49;7.30;99.90
53294;DHT22;39181;53.440;5.644;2023-11-25T01:31:14;7.70;99.90
53294;DHT22;39181;53.440;5.644;2023-11-25T01:33:42;7.30;99.90
53294;DHT22;39181;53.440;5.644;2023-11-25T01:36:08;7.10;99.90
53294;DHT22;39181;53.440;5.644;2023-11-25T01:38:38;7.10;99.90
53294;DHT22;39181;53.440;5.644;2023-11-25T01:41:04;7.10;99.90
53294;DHT22;39181;53.440;5.644;2023-11-25T01:43:30;7.20;99.90
53294;DHT22;39181;53.440;5.644;2023-11-25T01:45:56;7.10;99.90
53294;DHT22;39181;53.440;5.644;2023-11-25T01:48:24;7.10;99.90
53294;DHT22;39181;53.440;5.644;2023-11-25T01:50:50;7.20;99.90
53294;DHT22;39181;53.440;5.644;2023-11-25T01:53:17;7.30;99.90
53294;DHT22;39181;53.440;5.644;2023-11-25T01:55:45;7.30;99.90
53294;DHT22;39181;53.440;5.644;2023-11-25T01:58:13;7.40;99.90
53294;DHT22;39181;53.440;5.644;2023-11-25T02:00:42;7.40;99.90
53294;DHT22;39181;53.440;5.644;2023-11-25T02:03:08;7.40;99.90
53294;DHT22;39181;53.440;5.644;2023-11-25T02:05:35;7.30;99.90
53294;DHT22;39181;53.440;5.644;2023-11-25T02:08:01;7.20;99.90
53294;DHT22;39181;53.440;5.644;2023-11-25T02:10:27;7.10;99.90
53294;DHT22;39181;53.440;5.644;2023-11-25T02:12:54;7.10;99.90
53294;DHT22;39181;53.440;5.644;2023-11-25T02:15:19;7.10;99.90
53294;DHT22;39181;53.440;5.644;2023-11-25T02:17:45;7.00;99.90
53294;DHT22;39181;53.440;5.644;2023-11-25T02:20:11;7.00;99.90
53294;DHT22;39181;53.440;5.644;2023-11-25T02:22:46;6.90;99.90
53294;DHT22;39181;53.440;5.644;2023-11-25T02:25:12;6.80;99.90
53294;DHT22;39181;53.440;5.644;2023-11-25T02:27:40;6.80;99.90
53294;DHT22;39181;53.440;5.644;2023-11-25T02:30:06;6.60;99.90
53294;DHT22;39181;53.440;5.644;2023-11-25T02:32:32;6.70;99.90
53294;DHT22;39181;53.440;5.644;2023-11-25T02:34:59;6.90;99.90
53294;DHT22;39181;53.440;5.644;2023-11-25T02:37:26;6.80;99.90
53294;DHT22;39181;53.440;5.644;2023-11-25T02:39:51;6.60;99.90
53294;DHT22;39181;53.440;5.644;2023-11-25T02:42:17;6.40;99.90
53294;DHT22;39181;53.440;5.644;2023-11-25T02:44:43;6.20;99.90
53294;DHT22;39181;53.440;5.644;2023-11-25T02:47:09;6.10;99.90
53294;DHT22;39181;53.440;5.644;2023-11-25T02:49:34;5.90;99.90
53294;DHT22;39181;53.440;5.644;2023-11-25T02:52:01;5.90;99.90
53294;DHT22;39181;53.440;5.644;2023-11-25T02:54:26;5.90;99.90
53294;DHT22;39181;53.440;5.644;2023-11-25T02:56:52;5.90;99.90
53294;DHT22;39181;53.440;5.644;2023-11-25T02:59:17;6.10;99.90
53294;DHT22;39181;53.440;5.644;2023-11-25T03:01:43;6.30;99.90
53294;DHT22;39181;53.440;5.644;2023-11-25T03:04:17;6.30;99.90
53294;DHT22;39181;53.440;5.644;2023-11-25T03:06:43;6.40;99.90
53294;DHT22;39181;53.440;5.644;2023-11-25T03:09:11;6.50;99.90
53294;DHT22;39181;53.440;5.644;2023-11-25T03:11:37;6.60;99.90
53294;DHT22;39181;53.440;5.644;2023-11-25T03:14:02;6.50;99.90
53294;DHT22;39181;53.440;5.644;2023-11-25T03:16:30;6.60;99.90
53294;DHT22;39181;53.440;5.644;2023-11-25T03:18:55;6.50;99.90
53294;DHT22;39181;53.440;5.644;2023-11-25T03:21:22;6.60;99.90
53294;DHT22;39181;53.440;5.644;2023-11-25T03:23:48;6.70;99.90
53294;DHT22;39181;53.440;5.644;2023-11-25T03:26:14;6.90;99.90
53294;DHT22;39181;53.440;5.644;2023-11-25T03:28:39;7.00;99.90
53294;DHT22;39181;53.440;5.644;2023-11-25T03:31:05;7.10;99.90
53294;DHT22;39181;53.440;5.644;2023-11-25T03:33:33;7.20;99.90
53294;DHT22;39181;53.440;5.644;2023-11-25T03:35:58;7.30;99.90
53294;DHT22;39181;53.440;5.644;2023-11-25T03:38:24;7.20;99.90
53294;DHT22;39181;53.440;5.644;2023-11-25T03:40:50;7.30;99.90
53294;DHT22;39181;53.440;5.644;2023-11-25T03:43:20;7.30;99.90
53294;DHT22;39181;53.440;5.644;2023-11-25T03:45:50;7.40;99.90
53294;DHT22;39181;53.440;5.644;2023-11-25T03:48:16;7.50;99.90
53294;DHT22;39181;53.440;5.644;2023-11-25T03:50:42;7.40;99.90
53294;DHT22;39181;53.440;5.644;2023-11-25T03:53:08;7.40;99.90
53294;DHT22;39181;53.440;5.644;2023-11-25T03:55:34;7.40;99.90
53294;DHT22;39181;53.440;5.644;2023-11-25T03:57:59;7.40;99.90
53294;DHT22;39181;53.440;5.644;2023-11-25T04:00:27;7.40;99.90
53294;DHT22;39181;53.440;5.644;2023-11-25T04:02:53;7.40;99.90
53294;DHT22;39181;53.440;5.644;2023-11-25T04:05:18;7.40;99.90
53294;DHT22;39181;53.440;5.644;2023-11-25T04:07:44;7.40;99.90
53294;DHT22;39181;53.440;5.644;2023-11-25T04:10:11;7.30;99.90
53294;DHT22;39181;53.440;5.644;2023-11-25T04:12:48;7.30;99.90
53294;DHT22;39181;53.440;5.644;2023-11-25T04:15:16;7.30;99.90
53294;DHT22;39181;53.440;5.644;2023-11-25T04:17:44;7.40;99.90
53294;DHT22;39181;53.440;5.644;2023-11-25T04:20:10;7.50;99.90
53294;DHT22;39181;53.440;5.644;2023-11-25T04:22:43;7.50;99.90
53294;DHT22;39181;53.440;5.644;2023-11-25T04:25:09;7.40;99.90
53294;DHT22;39181;53.440;5.644;2023-11-25T04:27:37;7.30;99.90
53294;DHT22;39181;53.440;5.644;2023-11-25T04:30:03;7.30;99.90
53294;DHT22;39181;53.440;5.644;2023-11-25T04:32:30;7.40;99.90
53294;DHT22;39181;53.440;5.644;2023-11-25T04:34:56;7.40;99.90
53294;DHT22;39181;53.440;5.644;2023-11-25T04:37:21;7.30;99.90
53294;DHT22;39181;53.440;5.644;2023-11-25T04:39:47;7.30;99.90
53294;DHT22;39181;53.440;5.644;2023-11-25T04:42:12;7.20;99.90
53294;DHT22;39181;53.440;5.644;2023-11-25T04:44:38;7.10;99.90
53294;DHT22;39181;53.440;5.644;2023-11-25T04:47:04;7.00;99.90
53294;DHT22;39181;53.440;5.644;2023-11-25T04:49:30;7.00;99.90
53294;DHT22;39181;53.440;5.644;2023-11-25T04:51:56;7.10;99.90
53294;DHT22;39181;53.440;5.644;2023-11-25T04:54:21;7.10;99.90
53294;DHT22;39181;53.440;5.644;2023-11-25T04:56:47;7.20;99.90
53294;DHT22;39181;53.440;5.644;2023-11-25T04:59:12;7.20;99.90
53294;DHT22;39181;53.440;5.644;2023-11-25T05:01:38;7.10;99.90
53294;DHT22;39181;53.440;5.644;2023-11-25T05:04:04;7.00;99.90
53294;DHT22;39181;53.440;5.644;2023-11-25T05:06:30;6.90;99.90
53294;DHT22;39181;53.440;5.644;2023-11-25T05:08:56;6.90;99.90
53294;DHT22;39181;53.440;5.644;2023-11-25T05:11:21;6.80;99.90
53294;DHT22;39181;53.440;5.644;2023-11-25T05:13:47;6.70;99.90
53294;DHT22;39181;53.440;5.644;2023-11-25T05:16:12;6.60;99.90
53294;DHT22;39181;53.440;5.644;2023-11-25T05:18:38;6.50;99.90
53294;DHT22;39181;53.440;5.644;2023-11-25T05:21:03;6.60;99.90
53294;DHT22;39181;53.440;5.644;2023-11-25T05:23:32;6.80;99.90
53294;DHT22;39181;53.440;5.644;2023-11-25T05:25:57;6.90;99.90
53294;DHT22;39181;53.440;5.644;2023-11-25T05:28:23;6.90;99.90
53294;DHT22;39181;53.440;5.644;2023-11-25T05:30:48;7.10;99.90
53294;DHT22;39181;53.440;5.644;2023-11-25T05:33:14;7.10;99.90
53294;DHT22;39181;53.440;5.644;2023-11-25T05:35:40;7.00;99.90
53294;DHT22;39181;53.440;5.644;2023-11-25T05:38:05;6.90;99.90
53294;DHT22;39181;53.440;5.644;2023-11-25T05:40:31;7.00;99.90
53294;DHT22;39181;53.440;5.644;2023-11-25T05:42:57;7.10;99.90
53294;DHT22;39181;53.440;5.644;2023-11-25T05:45:26;7.10;99.90
53294;DHT22;39181;53.440;5.644;2023-11-25T05:47:53;7.00;99.90
53294;DHT22;39181;53.440;5.644;2023-11-25T05:50:18;7.00;99.90
53294;DHT22;39181;53.440;5.644;2023-11-25T05:52:45;7.00;99.90
53294;DHT22;39181;53.440;5.644;2023-11-25T05:55:11;7.10;99.90
53294;DHT22;39181;53.440;5.644;2023-11-25T05:57:37;7.10;99.90
53294;DHT22;39181;53.440;5.644;2023-11-25T06:00:03;7.10;99.90
53294;DHT22;39181;53.440;5.644;2023-11-25T06:02:29;7.00;99.90
53294;DHT22;39181;53.440;5.644;2023-11-25T06:04:55;6.70;99.90
53294;DHT22;39181;53.440;5.644;2023-11-25T06:07:20;6.60;99.90
53294;DHT22;39181;53.440;5.644;2023-11-25T06:09:46;6.60;99.90
53294;DHT22;39181;53.440;5.644;2023-11-25T06:12:11;6.60;99.90
53294;DHT22;39181;53.440;5.644;2023-11-25T06:14:39;6.60;99.90
53294;DHT22;39181;53.440;5.644;2023-11-25T06:17:04;6.60;99.90
53294;DHT22;39181;53.440;5.644;2023-11-25T06:19:32;6.60;99.90
53294;DHT22;39181;53.440;5.644;2023-11-25T06:21:58;6.70;99.90
53294;DHT22;39181;53.440;5.644;2023-11-25T06:24:24;6.80;99.90
53294;DHT22;39181;53.440;5.644;2023-11-25T06:26:50;6.80;99.90
53294;DHT22;39181;53.440;5.644;2023-11-25T06:29:16;6.80;99.90
53294;DHT22;39181;53.440;5.644;2023-11-25T06:31:42;6.90;99.90
53294;DHT22;39181;53.440;5.644;2023-11-25T06:34:10;7.00;99.90
53294;DHT22;39181;53.440;5.644;2023-11-25T06:36:35;7.00;99.90
53294;DHT22;39181;53.440;5.644;2023-11-25T06:39:01;7.10;99.90
53294;DHT22;39181;53.440;5.644;2023-11-25T06:41:27;7.20;99.90
53294;DHT22;39181;53.440;5.644;2023-11-25T06:43:53;7.30;99.90
53294;DHT22;39181;53.440;5.644;2023-11-25T06:46:19;7.40;99.90
53294;DHT22;39181;53.440;5.644;2023-11-25T06:48:47;7.50;99.90
53294;DHT22;39181;53.440;5.644;2023-11-25T06:51:13;7.50;99.90
53294;DHT22;39181;53.440;5.644;2023-11-25T06:53:39;7.50;99.90
53294;DHT22;39181;53.440;5.644;2023-11-25T06:56:10;7.30;99.90
53294;DHT22;39181;53.440;5.644;2023-11-25T06:58:40;7.20;99.90
53294;DHT22;39181;53.440;5.644;2023-11-25T07:01:05;7.10;99.90
53294;DHT22;39181;53.440;5.644;2023-11-25T07:03:31;7.00;99.90
53294;DHT22;39181;53.440;5.644;2023-11-25T07:05:56;7.00;99.90
53294;DHT22;39181;53.440;5.644;2023-11-25T07:08:25;7.00;99.90
53294;DHT22;39181;53.440;5.644;2023-11-25T07:10:51;7.00;99.90
53294;DHT22;39181;53.440;5.644;2023-11-25T07:13:20;7.30;99.90
53294;DHT22;39181;53.440;5.644;2023-11-25T07:15:47;7.30;99.90
53294;DHT22;39181;53.440;5.644;2023-11-25T07:18:12;7.20;99.90
53294;DHT22;39181;53.440;5.644;2023-11-25T07:20:39;7.20;99.90
53294;DHT22;39181;53.440;5.644;2023-11-25T07:23:04;7.20;99.90
53294;DHT22;39181;53.440;5.644;2023-11-25T07:25:30;7.30;99.90
53294;DHT22;39181;53.440;5.644;2023-11-25T07:27:58;7.30;99.90
53294;DHT22;39181;53.440;5.644;2023-11-25T07:30:23;7.40;99.90
53294;DHT22;39181;53.440;5.644;2023-11-25T07:32:49;7.30;99.90
53294;DHT22;39181;53.440;5.644;2023-11-25T07:35:14;7.10;99.90
53294;DHT22;39181;53.440;5.644;2023-11-25T07:37:40;7.10;99.90
53294;DHT22;39181;53.440;5.644;2023-11-25T07:40:07;7.00;99.90
53294;DHT22;39181;53.440;5.644;2023-11-25T07:42:40;7.20;99.90
53294;DHT22;39181;53.440;5.644;2023-11-25T07:45:08;7.30;99.90
53294;DHT22;39181;53.440;5.644;2023-11-25T07:47:35;7.30;99.90
53294;DHT22;39181;53.440;5.644;2023-11-25T07:50:01;7.30;99.90
53294;DHT22;39181;53.440;5.644;2023-11-25T07:52:27;7.20;99.90
53294;DHT22;39181;53.440;5.644;2023-11-25T07:54:53;7.30;99.90
53294;DHT22;39181;53.440;5.644;2023-11-25T07:57:19;7.30;99.90
53294;DHT22;39181;53.440;5.644;2023-11-25T07:59:44;7.50;99.90
53294;DHT22;39181;53.440;5.644;2023-11-25T08:02:10;7.60;99.90
53294;DHT22;39181;53.440;5.644;2023-11-25T08:04:35;7.40;99.90
53294;DHT22;39181;53.440;5.644;2023-11-25T08:07:01;7.10;99.90
53294;DHT22;39181;53.440;5.644;2023-11-25T08:09:28;6.90;99.90
53294;DHT22;39181;53.440;5.644;2023-11-25T08:11:53;6.80;99.90
53294;DHT22;39181;53.440;5.644;2023-11-25T08:14:19;6.80;99.90
53294;DHT22;39181;53.440;5.644;2023-11-25T08:16:44;6.60;99.90
53294;DHT22;39181;53.440;5.644;2023-11-25T08:19:12;6.60;99.90
53294;DHT22;39181;53.440;5.644;2023-11-25T08:21:40;6.60;99.90
53294;DHT22;39181;53.440;5.644;2023-11-25T08:24:06;6.70;99.90
53294;DHT22;39181;53.440;5.644;2023-11-25T08:26:31;6.80;99.90
53294;DHT22;39181;53.440;5.644;2023-11-25T08:28:58;6.60;99.90
53294;DHT22;39181;53.440;5.644;2023-11-25T08:31:24;6.30;99.90
53294;DHT22;39181;53.440;5.644;2023-11-25T08:33:50;6.20;99.90
53294;DHT22;39181;53.440;5.644;2023-11-25T08:36:16;6.40;99.90
53294;DHT22;39181;53.440;5.644;2023-11-25T08:38:43;6.50;99.90
53294;DHT22;39181;53.440;5.644;2023-11-25T08:41:09;6.50;99.90
53294;DHT22;39181;53.440;5.644;2023-11-25T08:43:39;6.50;99.90
53294;DHT22;39181;53.440;5.644;2023-11-25T08:46:06;6.70;99.90
53294;DHT22;39181;53.440;5.644;2023-11-25T08:48:32;7.00;99.90
53294;DHT22;39181;53.440;5.644;2023-11-25T08:50:57;7.00;99.90
53294;DHT22;39181;53.440;5.644;2023-11-25T08:53:23;7.10;99.90
53294;DHT22;39181;53.440;5.644;2023-11-25T08:55:50;7.20;99.90
53294;DHT22;39181;53.440;5.644;2023-11-25T08:58:15;7.50;99.90
53294;DHT22;39181;53.440;5.644;2023-11-25T09:00:42;7.70;99.90
53294;DHT22;39181;53.440;5.644;2023-11-25T09:03:09;7.70;99.90
53294;DHT22;39181;53.440;5.644;2023-11-25T09:05:35;7.70;99.90
53294;DHT22;39181;53.440;5.644;2023-11-25T09:08:06;7.50;99.90
53294;DHT22;39181;53.440;5.644;2023-11-25T09:10:34;7.30;99.90
53294;DHT22;39181;53.440;5.644;2023-11-25T09:13:01;7.30;99.90
53294;DHT22;39181;53.440;5.644;2023-11-25T09:15:27;7.40;99.90
53294;DHT22;39181;53.440;5.644;2023-11-25T09:17:53;7.40;99.90
53294;DHT22;39181;53.440;5.644;2023-11-25T09:20:19;7.00;99.90
53294;DHT22;39181;53.440;5.644;2023-11-25T09:22:46;7.60;99.90
53294;DHT22;39181;53.440;5.644;2023-11-25T09:25:11;7.70;99.90
53294;DHT22;39181;53.440;5.644;2023-11-25T09:27:38;7.90;99.90
53294;DHT22;39181;53.440;5.644;2023-11-25T09:30:05;8.00;99.90
53294;DHT22;39181;53.440;5.644;2023-11-25T09:32:31;7.90;99.90
53294;DHT22;39181;53.440;5.644;2023-11-25T09:34:57;8.00;99.90
53294;DHT22;39181;53.440;5.644;2023-11-25T09:37:23;8.10;99.90
53294;DHT22;39181;53.440;5.644;2023-11-25T09:39:48;8.20;99.90
53294;DHT22;39181;53.440;5.644;2023-11-25T09:42:14;8.20;99.90
53294;DHT22;39181;53.440;5.644;2023-11-25T09:44:41;8.10;99.90
53294;DHT22;39181;53.440;5.644;2023-11-25T09:47:07;8.10;99.90
53294;DHT22;39181;53.440;5.644;2023-11-25T09:49:33;8.00;99.90
53294;DHT22;39181;53.440;5.644;2023-11-25T09:52:01;7.90;99.90
53294;DHT22;39181;53.440;5.644;2023-11-25T09:54:30;7.80;99.90
53294;DHT22;39181;53.440;5.644;2023-11-25T09:56:58;7.90;99.90
53294;DHT22;39181;53.440;5.644;2023-11-25T09:59:26;8.10;99.90
53294;DHT22;39181;53.440;5.644;2023-11-25T10:01:52;8.20;99.90
53294;DHT22;39181;53.440;5.644;2023-11-25T10:04:18;8.40;99.90
53294;DHT22;39181;53.440;5.644;2023-11-25T10:06:47;8.40;99.90
53294;DHT22;39181;53.440;5.644;2023-11-25T10:09:14;8.50;99.90
53294;DHT22;39181;53.440;5.644;2023-11-25T10:11:41;8.50;99.90
53294;DHT22;39181;53.440;5.644;2023-11-25T10:14:10;8.50;99.90
53294;DHT22;39181;53.440;5.644;2023-11-25T10:16:39;8.20;99.90
53294;DHT22;39181;53.440;5.644;2023-11-25T10:19:17;8.00;99.90
53294;DHT22;39181;53.440;5.644;2023-11-25T10:21:44;7.90;99.90
53294;DHT22;39181;53.440;5.644;2023-11-25T10:24:11;7.80;99.90
53294;DHT22;39181;53.440;5.644;2023-11-25T10:26:36;7.90;99.90
53294;DHT22;39181;53.440;5.644;2023-11-25T10:29:03;7.90;99.90
53294;DHT22;39181;53.440;5.644;2023-11-25T10:31:29;8.00;99.90
53294;DHT22;39181;53.440;5.644;2023-11-25T10:33:56;7.90;99.90
53294;DHT22;39181;53.440;5.644;2023-11-25T10:36:22;8.00;99.90
53294;DHT22;39181;53.440;5.644;2023-11-25T10:38:48;8.10;99.90
53294;DHT22;39181;53.440;5.644;2023-11-25T10:41:14;8.30;99.90
53294;DHT22;39181;53.440;5.644;2023-11-25T10:43:42;8.40;99.90
53294;DHT22;39181;53.440;5.644;2023-11-25T10:46:10;8.40;99.90
53294;DHT22;39181;53.440;5.644;2023-11-25T10:48:39;8.50;99.90
53294;DHT22;39181;53.440;5.644;2023-11-25T10:51:06;8.50;99.90
53294;DHT22;39181;53.440;5.644;2023-11-25T10:53:32;8.60;99.90
53294;DHT22;39181;53.440;5.644;2023-11-25T10:56:01;8.60;99.90
53294;DHT22;39181;53.440;5.644;2023-11-25T10:58:28;8.60;99.90
53294;DHT22;39181;53.440;5.644;2023-11-25T11:00:55;8.70;99.90
53294;DHT22;39181;53.440;5.644;2023-11-25T11:03:22;8.80;99.90
53294;DHT22;39181;53.440;5.644;2023-11-25T11:08:31;8.90;99.90
53294;DHT22;39181;53.440;5.644;2023-11-25T11:11:00;9.00;99.90
53294;DHT22;39181;53.440;5.644;2023-11-25T11:13:33;9.10;99.90
53294;DHT22;39181;53.440;5.644;2023-11-25T11:16:06;9.20;99.90
53294;DHT22;39181;53.440;5.644;2023-11-25T11:18:32;9.20;99.90
53294;DHT22;39181;53.440;5.644;2023-11-25T11:21:01;9.20;99.90
53294;DHT22;39181;53.440;5.644;2023-11-25T11:23:27;9.10;99.90
53294;DHT22;39181;53.440;5.644;2023-11-25T11:34:04;8.90;99.90
53294;DHT22;39181;53.440;5.644;2023-11-25T11:36:30;8.80;99.90
53294;DHT22;39181;53.440;5.644;2023-11-25T11:38:56;8.90;99.90
53294;DHT22;39181;53.440;5.644;2023-11-25T11:44:07;8.90;99.90
53294;DHT22;39181;53.440;5.644;2023-11-25T11:46:36;9.00;99.90
53294;DHT22;39181;53.440;5.644;2023-11-25T11:49:06;8.80;99.90
53294;DHT22;39181;53.440;5.644;2023-11-25T11:51:33;8.70;99.90
53294;DHT22;39181;53.440;5.644;2023-11-25T12:00:03;8.80;99.90
53294;DHT22;39181;53.440;5.644;2023-11-25T12:02:37;8.90;99.90
53294;DHT22;39181;53.440;5.644;2023-11-25T12:05:08;8.80;99.90
53294;DHT22;39181;53.440;5.644;2023-11-25T12:07:35;8.50;99.90
53294;DHT22;39181;53.440;5.644;2023-11-25T12:10:00;8.40;99.90
53294;DHT22;39181;53.440;5.644;2023-11-25T12:12:27;8.20;99.90
53294;DHT22;39181;53.440;5.644;2023-11-25T12:14:53;8.00;99.90
53294;DHT22;39181;53.440;5.644;2023-11-25T12:17:18;7.90;99.90
53294;DHT22;39181;53.440;5.644;2023-11-25T12:19:44;7.80;99.90
53294;DHT22;39181;53.440;5.644;2023-11-25T12:22:10;7.70;99.90
53294;DHT22;39181;53.440;5.644;2023-11-25T12:24:39;7.80;99.90
53294;DHT22;39181;53.440;5.644;2023-11-25T12:27:05;7.80;99.90
53294;DHT22;39181;53.440;5.644;2023-11-25T12:29:34;8.00;99.90
53294;DHT22;39181;53.440;5.644;2023-11-25T12:31:59;8.20;99.90
53294;DHT22;39181;53.440;5.644;2023-11-25T12:34:25;8.40;99.90
53294;DHT22;39181;53.440;5.644;2023-11-25T12:36:51;8.50;99.90
53294;DHT22;39181;53.440;5.644;2023-11-25T12:39:17;8.50;99.90
53294;DHT22;39181;53.440;5.644;2023-11-25T12:41:43;8.50;99.90
53294;DHT22;39181;53.440;5.644;2023-11-25T12:44:09;8.30;99.90
53294;DHT22;39181;53.440;5.644;2023-11-25T12:46:38;8.20;99.90
53294;DHT22;39181;53.440;5.644;2023-11-25T12:49:23;8.20;99.90
53294;DHT22;39181;53.440;5.644;2023-11-25T12:51:50;8.30;99.90
53294;DHT22;39181;53.440;5.644;2023-11-25T12:54:16;8.30;99.90
53294;DHT22;39181;53.440;5.644;2023-11-25T12:56:53;8.30;99.90
53294;DHT22;39181;53.440;5.644;2023-11-25T12:59:24;8.50;99.90
53294;DHT22;39181;53.440;5.644;2023-11-25T13:01:52;8.40;99.90
53294;DHT22;39181;53.440;5.644;2023-11-25T13:04:18;8.40;99.90
53294;DHT22;39181;53.440;5.644;2023-11-25T13:06:48;8.40;99.90
53294;DHT22;39181;53.440;5.644;2023-11-25T13:09:14;8.50;99.90
53294;DHT22;39181;53.440;5.644;2023-11-25T13:11:41;8.50;99.90
53294;DHT22;39181;53.440;5.644;2023-11-25T13:14:06;8.60;99.90
53294;DHT22;39181;53.440;5.644;2023-11-25T13:16:33;8.30;99.90
53294;DHT22;39181;53.440;5.644;2023-11-25T13:18:59;8.10;99.90
53294;DHT22;39181;53.440;5.644;2023-11-25T13:21:24;7.90;99.90
53294;DHT22;39181;53.440;5.644;2023-11-25T13:23:50;7.40;99.90
53294;DHT22;39181;53.440;5.644;2023-11-25T13:26:17;7.20;99.90
53294;DHT22;39181;53.440;5.644;2023-11-25T13:28:43;6.90;99.90
53294;DHT22;39181;53.440;5.644;2023-11-25T13:31:09;6.90;99.90
53294;DHT22;39181;53.440;5.644;2023-11-25T13:33:34;7.00;99.90
53294;DHT22;39181;53.440;5.644;2023-11-25T13:36:00;6.90;99.90
53294;DHT22;39181;53.440;5.644;2023-11-25T13:38:25;7.10;99.90
53294;DHT22;39181;53.440;5.644;2023-11-25T13:40:51;7.00;99.90
53294;DHT22;39181;53.440;5.644;2023-11-25T13:43:16;7.00;99.90
53294;DHT22;39181;53.440;5.644;2023-11-25T13:45:46;7.00;99.90
53294;DHT22;39181;53.440;5.644;2023-11-25T13:48:11;7.10;99.90
53294;DHT22;39181;53.440;5.644;2023-11-25T13:50:40;7.00;99.90
53294;DHT22;39181;53.440;5.644;2023-11-25T13:53:06;6.70;99.90
53294;DHT22;39181;53.440;5.644;2023-11-25T13:55:31;6.60;99.90
53294;DHT22;39181;53.440;5.644;2023-11-25T13:58:03;6.40;99.90
53294;DHT22;39181;53.440;5.644;2023-11-25T14:00:32;6.40;99.90
53294;DHT22;39181;53.440;5.644;2023-11-25T14:02:58;6.80;99.90
53294;DHT22;39181;53.440;5.644;2023-11-25T14:05:28;6.90;99.90
53294;DHT22;39181;53.440;5.644;2023-11-25T14:07:55;7.30;99.90
53294;DHT22;39181;53.440;5.644;2023-11-25T14:10:21;7.10;99.90
53294;DHT22;39181;53.440;5.644;2023-11-25T14:12:47;7.10;99.90
53294;DHT22;39181;53.440;5.644;2023-11-25T14:15:12;7.10;99.90
53294;DHT22;39181;53.440;5.644;2023-11-25T14:17:40;6.90;99.90
53294;DHT22;39181;53.440;5.644;2023-11-25T14:20:09;7.00;99.90
53294;DHT22;39181;53.440;5.644;2023-11-25T14:22:42;6.80;99.90
53294;DHT22;39181;53.440;5.644;2023-11-25T14:25:10;7.10;99.90
53294;DHT22;39181;53.440;5.644;2023-11-25T14:27:36;7.10;99.90
53294;DHT22;39181;53.440;5.644;2023-11-25T14:30:01;6.90;99.90
53294;DHT22;39181;53.440;5.644;2023-11-25T14:32:28;6.90;99.90
53294;DHT22;39181;53.440;5.644;2023-11-25T14:34:54;7.00;99.90
53294;DHT22;39181;53.440;5.644;2023-11-25T14:37:20;7.00;99.90
53294;DHT22;39181;53.440;5.644;2023-11-25T14:39:46;6.80;99.90
53294;DHT22;39181;53.440;5.644;2023-11-25T14:42:12;6.90;99.90
53294;DHT22;39181;53.440;5.644;2023-11-25T14:44:39;6.80;99.90
53294;DHT22;39181;53.440;5.644;2023-11-25T14:47:07;6.60;99.90
53294;DHT22;39181;53.440;5.644;2023-11-25T14:49:34;6.50;99.90
53294;DHT22;39181;53.440;5.644;2023-11-25T14:52:01;6.50;99.90
53294;DHT22;39181;53.440;5.644;2023-11-25T14:54:27;6.40;99.90
53294;DHT22;39181;53.440;5.644;2023-11-25T14:56:54;6.30;99.90
53294;DHT22;39181;53.440;5.644;2023-11-25T14:59:20;6.40;99.90
53294;DHT22;39181;53.440;5.644;2023-11-25T15:01:46;6.10;99.90
53294;DHT22;39181;53.440;5.644;2023-11-25T15:04:12;6.20;99.90
53294;DHT22;39181;53.440;5.644;2023-11-25T15:06:39;6.10;99.90
53294;DHT22;39181;53.440;5.644;2023-11-25T15:09:05;6.30;99.90
53294;DHT22;39181;53.440;5.644;2023-11-25T15:11:31;6.10;99.90
53294;DHT22;39181;53.440;5.644;2023-11-25T15:13:56;6.30;99.90
53294;DHT22;39181;53.440;5.644;2023-11-25T15:16:22;6.10;99.90
53294;DHT22;39181;53.440;5.644;2023-11-25T15:18:47;6.20;99.90
53294;DHT22;39181;53.440;5.644;2023-11-25T15:21:17;6.20;99.90
53294;DHT22;39181;53.440;5.644;2023-11-25T15:23:44;6.40;99.90
53294;DHT22;39181;53.440;5.644;2023-11-25T15:26:10;6.50;99.90
53294;DHT22;39181;53.440;5.644;2023-11-25T15:28:39;6.70;99.90
53294;DHT22;39181;53.440;5.644;2023-11-25T15:31:09;6.50;99.90
53294;DHT22;39181;53.440;5.644;2023-11-25T15:33:35;6.60;99.90
53294;DHT22;39181;53.440;5.644;2023-11-25T15:36:01;6.40;99.90
53294;DHT22;39181;53.440;5.644;2023-11-25T15:38:26;6.40;99.90
53294;DHT22;39181;53.440;5.644;2023-11-25T15:40:52;6.20;99.90
53294;DHT22;39181;53.440;5.644;2023-11-25T15:43:17;6.10;99.90
53294;DHT22;39181;53.440;5.644;2023-11-25T15:45:43;6.10;99.90
53294;DHT22;39181;53.440;5.644;2023-11-25T15:48:11;6.20;99.90
53294;DHT22;39181;53.440;5.644;2023-11-25T15:50:37;6.10;99.90
53294;DHT22;39181;53.440;5.644;2023-11-25T15:53:02;5.90;99.90
53294;DHT22;39181;53.440;5.644;2023-11-25T15:55:30;5.90;99.90
53294;DHT22;39181;53.440;5.644;2023-11-25T15:57:56;6.10;99.90
53294;DHT22;39181;53.440;5.644;2023-11-25T16:00:22;6.00;99.90